Flight Track Log - Related Links

Times and Time Zones

All times are in EDT time to prevent confusion due to time zone crossing. See the EJA361 flight status page for this flight to view local times or setup timezone preferences in your user account.

Time Position Orientation Groundspeed Altitude Reporting Facility
EDT Latitude Longitude Course Direction KTS MPH feet Rate Location/Type
Mon 07:16:39 PM 38.0986 -85.7094 356° North 238 274 5,200  Level Indianapolis Center
Mon 07:17:41 PM 38.0781 -85.7925 253° West 286 329 8,800 2,661 Climbing Indianapolis Center
Mon 07:18:43 PM 38.1514 -85.8242 341° North 285 328 10,700 2,390 Climbing Indianapolis Center
Mon 07:19:44 PM 38.2336 -85.8461 348° North 295 339 13,700 2,829 Climbing Indianapolis Center
Mon 07:20:46 PM 38.3225 -85.8661 350° North 316 364 16,500 2,683 Climbing Indianapolis Center
Mon 07:21:00 PM 38.3422 -85.9833 North  Level FlightAware Approximate
Mon 07:21:47 PM 38.4233 -85.8783 355° North 347 399 19,200  Level Indianapolis Center
Mon 07:22:00 PM 38.4526 -85.9851 356° North  Level FlightAware Approximate
Mon 07:22:49 PM 38.5239 -85.8908 354° North 360 414 21,100  Level Indianapolis Center
Mon 07:23:51 PM 38.6308 -85.9033 355° North 374 430 23,000 1,951 Climbing Indianapolis Center
Mon 07:24:52 PM 38.7664 -85.9178 355° North 395 455 25,100 1,902 Climbing Indianapolis Center
Mon 07:25:54 PM 38.8753 -85.8658 20° North 429 494 26,900 1,805 Climbing Indianapolis Center
Mon 07:26:55 PM 38.9492 -85.7408 53° Northeast 440 506 28,800 1,805 Climbing Indianapolis Center
Mon 07:27:57 PM 39.0200 -85.6111 55° Northeast 445 512 30,600 1,756 Climbing Indianapolis Center
Mon 07:28:58 PM 39.0897 -85.4808 55° Northeast 445 512 32,400 1,707 Climbing Indianapolis Center
Mon 07:30:00 PM 39.1600 -85.3494 55° Northeast 448 516 34,100 1,707 Climbing Indianapolis Center
Mon 07:31:01 PM 39.2294 -85.2208 55° Northeast 442 509 35,900 1,415 Climbing Indianapolis Center
Mon 07:32:03 PM 39.3136 -85.0636 55° Northeast 445 512 37,000 976 Climbing Indianapolis Center
Mon 07:33:04 PM 39.3844 -84.9281 56° Northeast 455 524 37,900 878 Climbing Indianapolis Center
Mon 07:34:06 PM 39.4569 -84.7908 56° Northeast 457 526 38,800 878 Climbing Indianapolis Center
Mon 07:35:07 PM 39.5294 -84.6547 55° Northeast 454 522 39,700 585 Climbing Indianapolis Center
Mon 07:36:09 PM 39.6025 -84.5189 55° Northeast 455 524 40,000 146 Climbing Indianapolis Center
Mon 07:37:10 PM 39.6722 -84.3786 57° Northeast 458 527 40,000  Level Indianapolis Center
Mon 07:38:12 PM 39.7450 -84.2406 56° Northeast 459 528 40,000  Level Indianapolis Center
Mon 07:39:13 PM 39.8175 -84.1014 56° Northeast 460 529 40,000  Level Indianapolis Center
Mon 07:40:15 PM 39.8897 -83.9603 56° Northeast 462 532 40,000  Level Indianapolis Center
Mon 07:41:16 PM 39.9617 -83.8200 56° Northeast 460 529 40,000 98 Level Indianapolis Center
Mon 07:42:18 PM 40.0358 -83.6789 56° Northeast 462 532 40,200 488 Climbing Indianapolis Center
Mon 07:43:19 PM 40.1056 -83.5397 57° Northeast 450 518 41,000 390 Climbing Indianapolis Center
Mon 07:44:21 PM 40.1753 -83.3989 57° Northeast 452 520 41,000  Level Indianapolis Center
Mon 07:45:22 PM 40.2464 -83.2575 57° Northeast 458 527 41,000  Level Indianapolis Center
Mon 07:46:24 PM 40.3289 -83.0919 57° Northeast 461 531 41,000  Level Indianapolis Center
Mon 07:47:25 PM 40.3992 -82.9511 57° Northeast 459 528 41,000  Level Indianapolis Center
Mon 07:48:27 PM 40.4722 -82.8047 57° Northeast 463 533 41,000  Level Indianapolis Center
Mon 07:49:29 PM 40.5422 -82.6619 57° Northeast 461 531 41,000  Level Indianapolis Center
Mon 07:50:30 PM 40.6131 -82.5178 57° Northeast 465 535 41,000  Level Indianapolis Center
Mon 07:51:32 PM 40.6728 -82.3681 62° Northeast 460 529 41,000  Level Indianapolis Center
Mon 07:52:33 PM 40.7278 -82.2131 65° Northeast 462 532 41,000  Level Indianapolis Center
Mon 07:53:35 PM 40.7831 -82.0600 64° Northeast 461 531 41,000  Level Indianapolis Center
Mon 07:54:36 PM 40.8375 -81.9064 65° Northeast 461 531 41,000  Level Indianapolis Center
Mon 07:55:38 PM 40.8922 -81.7522 65° Northeast 462 532 41,000  Level Indianapolis Center
Mon 07:56:47 PM 40.9531 -81.5728 66° East 460 529 41,000  Level Cleveland Center
Mon 07:57:47 PM 41.0083 -81.4194 64° Northeast 460 529 41,000  Level Cleveland Center
Mon 07:58:47 PM 41.0636 -81.2633 65° Northeast 460 529 41,000  Level Cleveland Center
Mon 07:59:47 PM 41.1186 -81.1067 65° Northeast 460 529 41,000  Level Cleveland Center
Mon 08:00:47 PM 41.1714 -80.9556 65° Northeast 460 529 41,000  Level Cleveland Center
Mon 08:01:47 PM 41.2281 -80.7983 64° Northeast 460 529 41,000  Level Cleveland Center
Mon 08:02:47 PM 41.2867 -80.6247 66° East 465 535 41,000  Level Cleveland Center
Mon 08:03:47 PM 41.3386 -80.4669 66° East 460 529 41,000  Level Cleveland Center
Mon 08:04:47 PM 41.3969 -80.3119 63° Northeast 460 529 41,000  Level Cleveland Center
Mon 08:05:47 PM 41.4483 -80.1536 67° East 460 529 41,000  Level Cleveland Center
Mon 08:06:47 PM 41.5000 -79.9953 66° East 460 529 41,000  Level Cleveland Center
Mon 08:07:47 PM 41.5533 -79.8422 65° Northeast 460 529 41,000  Level Cleveland Center
Mon 08:08:47 PM 41.6042 -79.6833 67° East 460 529 41,000  Level Cleveland Center
Mon 08:09:47 PM 41.6569 -79.5269 66° East 460 529 41,000  Level Cleveland Center
Mon 08:10:47 PM 41.7075 -79.3678 67° East 460 529 41,000  Level Cleveland Center
Mon 08:11:47 PM 41.7581 -79.2136 66° East 460 529 41,000  Level Cleveland Center
Mon 08:12:47 PM 41.8061 -79.0678 66° East 460 529 41,000  Level Cleveland Center
Mon 08:13:47 PM 41.8600 -78.8992 67° East 460 529 41,000  Level Cleveland Center
Mon 08:14:47 PM 41.9097 -78.7444 67° East 460 529 41,000  Level Cleveland Center
Mon 08:15:47 PM 41.9614 -78.5839 67° East 455 524 41,000  Level Cleveland Center
Mon 08:16:47 PM 42.0086 -78.4286 68° East 455 524 41,000  Level Cleveland Center
Mon 08:17:47 PM 42.0578 -78.2731 67° East 455 524 41,000  Level Cleveland Center
Mon 08:18:47 PM 42.1028 -78.1344 66° East 450 518 41,000  Level Cleveland Center
Mon 08:19:47 PM 42.1514 -77.9756 68° East 450 518 41,000  Level Cleveland Center
Mon 08:20:47 PM 42.1997 -77.8167 68° East 450 518 41,000  Level Cleveland Center
Mon 08:21:47 PM 42.2481 -77.6575 68° East 450 518 41,000  Level Cleveland Center
Mon 08:22:47 PM 42.2961 -77.5008 67° East 450 518 41,000  Level Cleveland Center
Mon 08:23:47 PM 42.3439 -77.3439 68° East 450 518 41,000  Level Cleveland Center
Mon 08:25:31 PM 42.4294 -77.0569 68° East 459 528 41,000  Level Boston Center
Mon 08:26:31 PM 42.4522 -76.9036 79° East 464 534 41,000  Level Boston Center
Mon 08:27:31 PM 42.4714 -76.7333 81° East 458 527 41,000  Level Boston Center
Mon 08:28:31 PM 42.4900 -76.5656 81° East 458 527 41,000  Level Boston Center
Mon 08:29:31 PM 42.5067 -76.3947 82° East 458 527 41,000 -600 Level Boston Center
Mon 08:30:31 PM 42.5269 -76.2297 80° East 458 527 39,800 -1,250 Descending Boston Center
Mon 08:31:31 PM 42.5425 -76.0728 82° East 437 503 38,500 -1,300 Descending Boston Center
Mon 08:32:31 PM 42.5578 -75.9131 83° East 427 491 37,200 -1,300 Descending Boston Center
Mon 08:33:31 PM 42.5731 -75.7475 83° East 427 491 35,900 -1,100 Descending Boston Center
Mon 08:34:31 PM 42.5883 -75.5761 83° East 439 505 35,000 -450 Descending Boston Center
Mon 08:35:31 PM 42.6033 -75.4078 83° East 451 519 35,000  Level Boston Center
Mon 08:36:31 PM 42.6203 -75.2364 82° East 456 525 35,000 -900 Level Boston Center
Mon 08:38:31 PM 42.6531 -74.8961 82° East 456 525 32,300 -1,400 Descending Boston Center
Mon 08:39:31 PM 42.6672 -74.7189 84° East 463 533 30,800 -1,500 Descending Boston Center
Mon 08:40:31 PM 42.6644 -74.5381 91° East 463 533 29,300 -900 Descending Boston Center
Mon 08:41:31 PM 42.6592 -74.3628 92° East 463 533 29,000 -150 Descending Boston Center
Mon 08:42:31 PM 42.6517 -74.1847 93° East 463 533 29,000 -250 Level Boston Center
Mon 08:43:31 PM 42.6375 -74.0122 96° East 463 533 28,500 -1,000 Descending Boston Center
Mon 08:44:31 PM 42.6083 -73.8506 104° East 457 526 27,000 -1,650 Descending Boston Center
Mon 08:45:31 PM 42.5792 -73.6722 102° East 443 510 25,200 -1,650 Descending Boston Center
Mon 08:46:31 PM 42.5536 -73.5139 102° East 432 497 23,700 -1,500 Descending Boston Center
Mon 08:47:31 PM 42.5281 -73.3586 103° East 432 497 22,200 -1,500 Descending Boston Center
Mon 08:48:31 PM 42.5064 -73.1978 100° East 428 493 20,700 -1,500 Descending Boston Center
Mon 08:49:31 PM 42.4842 -73.0511 102° East 412 474 19,200 -1,350 Descending Boston Center
Mon 08:50:31 PM 42.4911 -72.8992 86° East 399 459 18,000 -600 Descending Boston Center
Mon 08:51:31 PM 42.5019 -72.7528 84° East 399 459 18,000  Level Boston Center
Mon 08:52:31 PM 42.5108 -72.6175 85° East 399 459 18,000 -50 Level Boston Center
Mon 08:53:31 PM 42.5192 -72.4711 86° East 399 459 17,900 -1,050 Descending Boston Center
Mon 08:54:31 PM 42.5294 -72.3217 85° East 394 453 15,900 -2,000 Descending Boston Center
Mon 08:55:31 PM 42.5378 -72.1781 85° East 384 442 13,900 -2,050 Descending Boston Center
Mon 08:56:31 PM 42.5414 -72.0231 88° East 378 435 11,800 -1,850 Descending Boston Center
Mon 08:57:31 PM 42.5325 -71.9189 97° East 346 398 10,200 -1,650 Descending Boston Center
Mon 08:58:31 PM 42.5217 -71.7978 97° East 303 349 8,500 -1,500 Descending Boston Center
Mon 08:59:31 PM 42.5272 -71.7019 85° East 286 329 7,200 -1,608 Descending Boston Center
Mon 09:00:08 PM 42.5333 -71.6167 84° East 279 321 5,900 -1,631 Descending KA90
Mon 09:01:14 PM 42.5333 -71.5167 90° East 264 304 4,400 -1,238 Descending KA90
Mon 09:02:14 PM 42.5333 -71.4333 90° East 225 259 3,300 -1,033 Descending KA90
Mon 09:03:16 PM 42.5167 -71.3500 105° East 197 227 2,300 -689 Descending KA90
Mon 09:04:16 PM 42.5167 -71.2833 90° East 169 194 1,900 -403 Descending KA90
Mon 09:05:15 PM 42.5000 -71.2333 114° Southeast 146 168 1,500 -650 Descending KA90
Mon 09:06:16 PM 42.4667 -71.2500 200° South 137 158 600 1,298 Descending KA90
Mon 09:08:43 PM 42.4278 -71.2700 201° Southwest 77 89 6,000 1,565 Climbing Boston Center
Mon 09:09:43 PM 42.4028 -71.2789 195° South 77 89 6,000  Level Boston Center
Mon 09:10:43 PM 42.3819 -71.2878 197° South 77 89 6,000  Level Boston Center
Mon 09:11:43 PM 42.3778 -71.2878 180° South 77 89 6,000  Level Boston Center
Mon 09:13:00 PM 42.4757 -71.2697 228° Southwest  Level FlightAware Approximate
Mon 09:20:00 PM 42.4667 -71.2833 228° Southwest  Level FlightAware Approximate

Login

Don't have an account? Register now (free) for customized features, flight alerts, and more!